Time;durP1;ratioP1;P1;durP2;ratioP2;P2;SDS_P1;SDS_P2;PMS_P1;PMS_P2;Temp;Humidity;BMP_temperature;BMP_pressure;BME280_temperature;BME280_humidity;BME280_pressure;Samples;Min_cycle;Max_cycle;Signal;HPM_P1;HPM_P2
2022/07/05 16:54:28;;;;;;;11.63;7.18;;;;;;;26.96;51.57;98815.09;5150670;27;20596;-67
2022/07/05 16:56:55;;;;;;;13.35;7.20;;;;;;;26.60;52.48;98817.91;5153941;27;20133;-67
2022/07/05 16:59:22;;;;;;;11.05;7.32;;;;;;;26.81;52.49;98823.38;5132319;27;20043;-72
2022/07/05 17:01:49;;;;;;;11.77;7.40;;;;;;;26.81;51.45;98812.69;5156839;27;20073;-63
2022/07/05 17:04:16;;;;;;;10.70;6.90;;;;;;;26.95;51.21;98816.03;5170814;27;20125;-72
2022/07/05 17:06:43;;;;;;;9.90;7.10;;;;;;;26.98;51.79;98819.31;5171599;27;20039;-66
2022/07/05 17:09:10;;;;;;;11.13;6.43;;;;;;;26.93;50.93;98824.22;5171360;27;20082;-74
2022/07/05 17:11:38;;;;;;;9.50;7.00;;;;;;;26.96;50.38;98831.13;5135843;27;20111;-67
2022/07/05 17:14:08;;;;;;;10.20;6.65;;;;;;;27.05;50.82;98833.06;5170354;27;20053;-73
2022/07/05 17:16:34;;;;;;;10.20;6.55;;;;;;;27.04;50.55;98824.19;5170745;27;20098;-71
2022/07/05 17:19:01;;;;;;;10.80;6.85;;;;;;;27.09;50.50;98816.63;5171134;27;20082;-75
2022/07/05 17:21:28;;;;;;;10.73;6.75;;;;;;;26.92;50.56;98811.81;5152434;27;20046;-70
2022/07/05 17:23:55;;;;;;;9.05;5.75;;;;;;;26.98;50.29;98799.78;5153604;27;20043;-69
2022/07/05 17:26:23;;;;;;;10.20;5.93;;;;;;;26.77;50.29;98784.47;5170182;27;20480;-70
2022/07/05 17:28:52;;;;;;;10.30;6.63;;;;;;;26.70;50.66;98770.78;5170565;27;20129;-70
2022/07/05 17:31:19;;;;;;;8.13;5.45;;;;;;;26.72;50.33;98765.31;5170184;27;20046;-70
2022/07/05 17:33:46;;;;;;;8.70;6.15;;;;;;;26.41;49.87;98758.88;5167699;27;20082;-69
2022/07/05 17:36:13;;;;;;;9.20;5.57;;;;;;;26.62;50.20;98759.84;5169479;27;20125;-69
2022/07/05 17:38:43;;;;;;;9.35;5.85;;;;;;;26.51;50.25;98751.81;5170161;27;20035;-73
2022/07/05 17:41:12;;;;;;;7.90;5.40;;;;;;;26.48;50.48;98752.91;5170169;27;20083;-68
2022/07/05 17:43:43;;;;;;;10.48;5.53;;;;;;;26.43;50.50;98755.09;5169477;27;20038;-69
2022/07/05 17:46:11;;;;;;;11.43;5.50;;;;;;;26.65;49.67;98769.44;5170072;27;20046;-71
2022/07/05 17:48:38;;;;;;;9.40;5.32;;;;;;;26.77;49.46;98752.41;5170036;27;20496;-74
2022/07/05 17:51:05;;;;;;;7.88;5.60;;;;;;;26.87;49.21;98757.84;5168750;27;20058;-70
2022/07/05 17:53:32;;;;;;;8.98;5.25;;;;;;;26.97;48.94;98769.53;5169294;27;20054;-71
2022/07/05 17:55:59;;;;;;;8.10;5.65;;;;;;;27.04;49.21;98786.75;5169727;27;20047;-71
2022/07/05 17:58:27;;;;;;;9.98;5.60;;;;;;;27.01;48.70;98796.88;5151668;27;20102;-71
2022/07/05 18:00:54;;;;;;;8.65;5.70;;;;;;;26.97;48.38;98814.09;5168793;27;20069;-69
2022/07/05 18:03:22;;;;;;;9.07;5.90;;;;;;;26.86;49.50;98818.50;5151179;27;20493;-74
2022/07/05 18:05:49;;;;;;;8.10;5.47;;;;;;;26.53;49.75;98817.50;5155718;27;20047;-72
2022/07/05 18:08:16;;;;;;;9.13;5.88;;;;;;;26.37;50.25;98834.88;5136788;27;20047;-65
2022/07/05 18:10:43;;;;;;;8.88;5.35;;;;;;;26.38;49.73;98882.81;5155541;27;20093;-66
2022/07/05 18:13:10;;;;;;;8.50;5.60;;;;;;;26.33;49.87;98941.09;5156058;27;20099;-67
2022/07/05 18:15:37;;;;;;;8.50;5.40;;;;;;;26.16;50.82;98962.88;5153215;27;20441;-67
2022/07/05 18:18:04;;;;;;;12.40;5.90;;;;;;;26.12;51.11;98928.38;5155912;27;20531;-73
2022/07/05 18:20:32;;;;;;;10.73;6.63;;;;;;;25.90;52.55;98886.41;5154992;27;20527;-74
2022/07/05 18:22:59;;;;;;;10.35;6.28;;;;;;;25.91;52.87;98832.06;5155537;27;20111;-74
2022/07/05 18:25:26;;;;;;;10.40;5.93;;;;;;;25.71;54.52;98822.03;5155597;27;20509;-72
2022/07/05 18:27:53;;;;;;;13.82;6.18;;;;;;;25.72;53.82;98835.25;5155606;27;20043;-73
2022/07/05 18:30:20;;;;;;;10.82;5.97;;;;;;;25.85;53.38;98850.34;5155795;27;20421;-73
2022/07/05 18:32:46;;;;;;;13.20;6.40;;;;;;;25.78;53.64;98886.47;5155077;27;20078;-73
2022/07/05 18:35:14;;;;;;;10.50;5.93;;;;;;;25.65;54.11;98907.84;5154541;27;20086;-73
2022/07/05 18:37:42;;;;;;;9.52;6.13;;;;;;;25.57;53.96;98921.78;5155205;27;20061;-73
2022/07/05 18:40:10;;;;;;;9.75;6.22;;;;;;;25.54;54.80;98925.50;5154989;27;20090;-73
2022/07/05 18:42:37;;;;;;;9.07;5.97;;;;;;;25.54;54.46;98917.50;5154405;27;20042;-74
2022/07/05 18:45:04;;;;;;;8.60;5.50;;;;;;;25.56;54.03;98903.22;5155309;27;20042;-74
2022/07/05 18:47:31;;;;;;;10.52;6.07;;;;;;;25.36;54.45;98889.53;5154595;27;20070;-74
2022/07/05 18:49:58;;;;;;;10.20;5.82;;;;;;;25.13;55.21;98880.47;5133843;27;20046;-73
2022/07/05 18:52:24;;;;;;;9.70;6.07;;;;;;;25.27;54.72;98888.34;5136814;27;20055;-72
2022/07/05 18:54:55;;;;;;;9.55;5.97;;;;;;;25.28;54.67;98879.41;5135194;27;20127;-74
2022/07/05 18:57:22;;;;;;;8.77;5.88;;;;;;;25.06;55.50;98895.19;5153330;27;20043;-74
2022/07/05 18:59:48;;;;;;;9.10;6.43;;;;;;;25.11;55.18;98893.91;5153714;27;20100;-74
2022/07/05 19:02:15;;;;;;;10.80;6.40;;;;;;;25.09;55.44;98892.31;5148436;27;20043;-74
2022/07/05 19:04:42;;;;;;;9.77;6.10;;;;;;;25.16;55.27;98885.56;5154019;27;20043;-73
2022/07/05 19:15:24;;;;;;;11.02;6.47;;;;;;;25.13;54.98;98864.50;5153739;27;20541;-73
2022/07/05 19:17:51;;;;;;;9.15;6.32;;;;;;;25.06;55.54;98866.72;5153141;27;20095;-73
2022/07/05 19:20:18;;;;;;;8.60;6.43;;;;;;;24.75;56.73;98860.06;5153162;27;20050;-73
2022/07/05 19:22:45;;;;;;;9.00;6.18;;;;;;;24.85;56.10;98863.78;5149396;27;20039;-73
2022/07/05 19:25:13;;;;;;;10.50;6.63;;;;;;;24.99;55.72;98876.16;5135980;27;20038;-73
2022/07/05 19:27:40;;;;;;;10.60;6.88;;;;;;;24.98;55.91;98877.09;5153979;27;20138;-73
2022/07/05 19:30:08;;;;;;;10.27;6.45;;;;;;;24.95;56.03;98859.50;5135796;27;20170;-72
2022/07/05 19:32:34;;;;;;;11.50;7.10;;;;;;;25.00;55.83;98847.66;5154221;27;20580;-73
2022/07/05 19:35:01;;;;;;;9.60;6.45;;;;;;;24.96;55.90;98842.53;5154323;27;20091;-73
2022/07/05 19:37:28;;;;;;;13.90;6.78;;;;;;;24.81;55.99;98854.28;5135480;27;20405;-73
2022/07/05 19:39:55;;;;;;;8.93;6.22;;;;;;;24.84;55.87;98854.09;5126457;27;20118;-73
2022/07/05 19:42:23;;;;;;;8.98;6.10;;;;;;;24.93;55.45;98842.78;5132325;27;20078;-73
2022/07/05 19:44:50;;;;;;;9.27;5.88;;;;;;;24.98;55.00;98839.78;5152856;27;20106;-73
2022/07/05 19:47:17;;;;;;;9.05;6.45;;;;;;;24.83;55.59;98835.53;5154347;27;20083;-73
2022/07/05 19:49:44;;;;;;;11.38;6.15;;;;;;;24.86;55.44;98836.19;5135874;27;20089;-72
2022/07/05 19:52:11;;;;;;;9.25;6.10;;;;;;;24.91;55.33;98844.72;5153710;27;20046;-72
2022/07/05 19:54:37;;;;;;;9.88;5.93;;;;;;;24.88;55.29;98836.06;5135441;27;20082;-73
2022/07/05 19:57:04;;;;;;;8.30;5.90;;;;;;;24.77;55.32;98829.69;5143606;27;20096;-73
2022/07/05 19:59:32;;;;;;;8.10;6.05;;;;;;;24.87;55.10;98835.22;5133197;27;20108;-73
2022/07/05 20:01:59;;;;;;;8.93;5.93;;;;;;;24.87;54.89;98847.69;5116406;27;20046;-73
2022/07/05 20:04:26;;;;;;;8.95;5.70;;;;;;;24.87;54.96;98840.56;5153789;27;20047;-72
2022/07/05 20:06:53;;;;;;;8.43;6.00;;;;;;;24.76;55.27;98833.31;5153655;27;20078;-73
2022/07/05 20:09:19;;;;;;;9.52;6.22;;;;;;;24.80;54.82;98820.63;5135646;27;20093;-73
2022/07/05 20:11:47;;;;;;;9.05;5.78;;;;;;;24.65;55.64;98817.25;5153945;27;20050;-73
2022/07/05 20:14:16;;;;;;;8.85;6.40;;;;;;;24.67;55.61;98820.66;5118788;27;20457;-73
2022/07/05 20:16:46;;;;;;;8.30;6.05;;;;;;;24.64;55.62;98814.69;5160274;27;20050;-73
2022/07/05 20:19:12;;;;;;;8.32;6.05;;;;;;;24.45;56.05;98807.97;5132831;27;20122;-73
2022/07/05 20:21:39;;;;;;;9.23;6.10;;;;;;;24.57;55.58;98806.28;5132750;27;20428;-73
2022/07/05 20:24:06;;;;;;;8.75;6.20;;;;;;;24.45;56.11;98812.47;5114712;27;20047;-72
2022/07/05 20:26:33;;;;;;;8.98;6.57;;;;;;;24.32;56.24;98818.63;5133031;27;20043;-73
2022/07/05 20:29:02;;;;;;;12.82;6.40;;;;;;;24.35;55.97;98815.75;5118982;27;20042;-73
2022/07/05 20:31:29;;;;;;;8.48;6.40;;;;;;;24.31;56.12;98816.06;5151677;27;20510;-73
2022/07/05 20:33:57;;;;;;;8.35;6.10;;;;;;;24.39;55.44;98816.41;5151371;27;20087;-73
2022/07/05 20:36:24;;;;;;;9.80;6.07;;;;;;;24.37;55.37;98810.31;5154850;27;20074;-63
2022/07/05 20:38:51;;;;;;;10.02;6.15;;;;;;;24.37;55.42;98805.84;5155318;27;20447;-63
2022/07/05 20:41:19;;;;;;;8.35;6.18;;;;;;;24.29;55.65;98794.00;5145720;27;20050;-63
2022/07/05 20:43:46;;;;;;;8.10;5.82;;;;;;;24.31;55.55;98802.75;5163742;27;20050;-63
2022/07/05 20:46:13;;;;;;;8.65;6.03;;;;;;;24.18;56.02;98798.28;5149277;27;20450;-63
2022/07/05 20:48:43;;;;;;;8.00;5.45;;;;;;;24.23;55.74;98794.44;5150384;27;20482;-63
2022/07/05 20:51:11;;;;;;;8.93;5.72;;;;;;;24.14;56.05;98798.59;5143653;27;20057;-63
2022/07/05 20:53:38;;;;;;;8.77;5.68;;;;;;;24.01;56.86;98809.22;5125566;27;20401;-63
2022/07/05 20:56:05;;;;;;;8.93;6.07;;;;;;;24.03;56.42;98804.66;5140047;27;20482;-63
2022/07/05 20:58:32;;;;;;;8.18;5.70;;;;;;;24.01;56.52;98814.56;5144934;27;20091;-63
2022/07/05 21:00:59;;;;;;;7.43;5.15;;;;;;;24.09;55.92;98808.72;5139932;27;20042;-63
2022/07/05 21:03:26;;;;;;;8.07;5.30;;;;;;;24.16;55.82;98807.34;5146988;27;20038;-63
2022/07/05 21:05:53;;;;;;;13.25;5.53;;;;;;;24.37;55.14;98813.84;5134511;27;20047;-63
2022/07/05 21:08:21;;;;;;;10.63;5.18;;;;;;;24.62;54.28;98816.59;5143136;27;20443;-63
2022/07/05 21:10:48;;;;;;;14.38;5.10;;;;;;;24.80;53.89;98825.13;5139264;27;20131;-63
2022/07/05 21:13:15;;;;;;;10.90;5.32;;;;;;;24.96;53.48;98820.38;5147561;27;20042;-63
2022/07/05 21:15:42;;;;;;;8.90;4.80;;;;;;;25.09;53.10;98821.19;5138130;27;20039;-63
2022/07/05 21:18:09;;;;;;;12.50;5.25;;;;;;;25.20;52.73;98823.06;5150942;27;20095;-63
2022/07/05 21:20:35;;;;;;;7.57;4.75;;;;;;;25.31;52.53;98820.50;5152860;27;20545;-63
2022/07/05 21:23:03;;;;;;;8.18;4.60;;;;;;;25.37;52.23;98824.53;5133278;27;20082;-63
2022/07/05 21:25:32;;;;;;;8.98;4.88;;;;;;;25.45;51.91;98827.47;5146822;27;20167;-63
2022/07/05 21:27:58;;;;;;;8.80;4.50;;;;;;;25.52;51.88;98827.91;5123299;27;20082;-63
2022/07/05 21:30:26;;;;;;;7.57;4.45;;;;;;;25.53;51.74;98826.91;5156350;27;20497;-63
2022/07/05 21:32:53;;;;;;;6.55;4.05;;;;;;;25.66;51.55;98834.88;5147208;27;20393;-63
2022/07/05 21:35:21;;;;;;;7.72;4.50;;;;;;;25.67;51.32;98832.09;5141226;27;20122;-62
2022/07/05 21:37:47;;;;;;;7.00;4.55;;;;;;;25.73;51.14;98831.63;5131068;27;20484;-63
2022/07/05 21:40:14;;;;;;;6.10;4.40;;;;;;;25.77;51.03;98842.91;5134651;27;20047;-63
2022/07/05 21:42:45;;;;;;;7.72;4.30;;;;;;;25.82;50.90;98843.41;5149618;27;20437;-63
2022/07/05 21:45:12;;;;;;;6.80;4.30;;;;;;;25.85;50.76;98839.69;5148765;27;20110;-63
2022/07/05 21:47:38;;;;;;;7.05;4.20;;;;;;;25.88;50.65;98850.97;5147980;27;20133;-63
2022/07/05 21:50:06;;;;;;;7.10;4.20;;;;;;;25.94;50.66;98847.03;5160681;27;20051;-63
2022/07/05 21:52:33;;;;;;;7.00;4.40;;;;;;;26.01;50.36;98844.72;5153359;27;20096;-63
2022/07/05 21:55:01;;;;;;;6.45;4.15;;;;;;;26.02;50.33;98849.97;5136881;27;20043;-63
2022/07/05 21:57:28;;;;;;;7.15;4.18;;;;;;;26.03;50.29;98853.47;5159963;27;20051;-62
2022/07/05 22:05:25;;;;;;;4.95;3.67;;;;;;;26.10;50.03;98858.22;5151381;27;20143;-63
2022/07/05 22:07:52;;;;;;;5.50;3.95;;;;;;;26.11;49.88;98857.28;5137506;27;20062;-63
2022/07/05 22:10:19;;;;;;;5.07;3.65;;;;;;;26.12;49.92;98861.63;5136325;27;20508;-63
2022/07/05 22:12:46;;;;;;;6.78;4.00;;;;;;;26.17;49.79;98855.09;5147247;27;20047;-63
2022/07/05 22:15:14;;;;;;;5.72;3.90;;;;;;;26.18;49.80;98865.66;5122258;27;20042;-62
2022/07/05 22:17:41;;;;;;;5.75;3.80;;;;;;;26.19;49.63;98863.81;5151592;27;20094;-63
2022/07/05 22:20:09;;;;;;;4.70;3.58;;;;;;;26.23;49.67;98865.28;5138103;27;20306;-63
2022/07/05 22:22:35;;;;;;;4.75;3.50;;;;;;;26.25;49.52;98869.56;5156189;27;20127;-62
2022/07/05 22:25:02;;;;;;;5.78;3.60;;;;;;;26.28;49.48;98876.47;5142961;27;20134;-63
2022/07/05 22:27:29;;;;;;;4.45;3.40;;;;;;;26.25;49.25;98869.56;5148374;27;20484;-63
2022/07/05 22:29:56;;;;;;;5.25;3.78;;;;;;;26.26;49.52;98865.06;5131945;27;20404;-63
2022/07/05 22:32:24;;;;;;;5.22;3.33;;;;;;;26.31;49.37;98863.75;5117626;27;20083;-63
2022/07/05 22:34:52;;;;;;;5.93;3.60;;;;;;;26.36;49.09;98867.88;5135024;27;20050;-63
2022/07/05 22:37:19;;;;;;;4.93;3.30;;;;;;;26.36;48.95;98871.38;5150315;27;20125;-63
2022/07/05 22:39:46;;;;;;;4.60;3.33;;;;;;;26.39;49.03;98860.47;5155092;27;20046;-63
2022/07/05 22:42:13;;;;;;;4.72;3.40;;;;;;;26.31;49.22;98863.75;5117260;27;20099;-63
2022/07/05 22:44:41;;;;;;;5.90;3.20;;;;;;;26.38;49.07;98860.59;5129864;27;20603;-63
2022/07/05 22:47:08;;;;;;;4.90;3.38;;;;;;;26.42;48.88;98860.22;5154519;27;20118;-63
2022/07/05 22:49:36;;;;;;;4.20;3.30;;;;;;;26.43;48.81;98853.94;5156080;27;20038;-63
2022/07/05 22:52:04;;;;;;;3.63;3.10;;;;;;;26.48;48.95;98861.56;5134254;27;20482;-62
2022/07/05 22:54:31;;;;;;;3.45;2.90;;;;;;;26.47;48.62;98860.72;5139768;27;20117;-63
2022/07/05 22:56:57;;;;;;;7.13;3.60;;;;;;;26.46;48.95;98844.81;5137129;27;20058;-63
2022/07/05 22:59:24;;;;;;;5.55;3.25;;;;;;;26.39;48.82;98855.13;5154343;27;20134;-62
2022/07/05 23:01:51;;;;;;;5.03;3.13;;;;;;;26.50;48.51;98856.97;5153889;27;20066;-63
2022/07/05 23:04:18;;;;;;;4.95;3.30;;;;;;;26.52;48.62;98855.88;5146034;27;20047;-63
2022/07/05 23:06:47;;;;;;;4.55;2.90;;;;;;;26.56;48.58;98860.97;5128555;27;20042;-63
2022/07/05 23:09:13;;;;;;;4.25;2.90;;;;;;;26.56;48.48;98861.84;5150663;27;20043;-63
2022/07/05 23:11:40;;;;;;;4.07;2.88;;;;;;;26.59;48.10;98860.78;5135541;27;20516;-63
2022/07/05 23:14:07;;;;;;;3.75;2.90;;;;;;;26.51;48.32;98859.50;5127162;27;20544;-62
2022/07/05 23:16:34;;;;;;;4.07;2.60;;;;;;;26.56;48.46;98872.53;5155794;27;20042;-63
2022/07/05 23:19:02;;;;;;;3.08;2.65;;;;;;;26.56;48.16;98872.53;5143050;27;20042;-63
2022/07/05 23:21:29;;;;;;;3.13;2.78;;;;;;;26.61;48.11;98869.53;5133832;27;20091;-63
2022/07/05 23:26:44;;;;;;;3.42;2.40;;;;;;;26.58;48.29;98883.94;5145657;27;20077;-63
2022/07/05 23:29:11;;;;;;;2.88;2.60;;;;;;;26.57;48.13;98884.06;5156317;27;20082;-63
2022/07/05 23:31:38;;;;;;;3.33;2.53;;;;;;;26.61;47.94;98880.22;5138836;27;20039;-63
2022/07/05 23:34:04;;;;;;;4.65;2.67;;;;;;;26.59;48.16;98879.47;5135325;27;20047;-63
2022/07/05 23:36:32;;;;;;;3.03;2.60;;;;;;;26.65;48.15;98881.66;5139301;27;20123;-63
2022/07/05 23:39:00;;;;;;;2.97;2.50;;;;;;;26.56;48.02;98877.88;5133734;27;20047;-63
2022/07/05 23:41:26;;;;;;;2.50;2.30;;;;;;;26.64;47.86;98871.97;5133638;27;20086;-63
2022/07/05 23:43:53;;;;;;;2.90;2.50;;;;;;;26.68;47.99;98871.59;5147983;27;20458;-63
2022/07/05 23:46:20;;;;;;;2.67;2.30;;;;;;;26.62;47.83;98876.56;5134436;27;20082;-63
2022/07/05 23:48:47;;;;;;;2.97;2.40;;;;;;;26.36;48.05;98866.03;5142056;27;20181;-63
2022/07/05 23:51:15;;;;;;;2.80;2.53;;;;;;;26.23;48.52;98871.50;5140700;27;20067;-63
2022/07/05 23:53:42;;;;;;;3.00;2.28;;;;;;;26.33;48.48;98875.16;5146369;27;20054;-63
2022/07/05 23:56:10;;;;;;;4.20;2.45;;;;;;;26.33;48.47;98874.31;5156213;27;20081;-63
2022/07/05 23:58:36;;;;;;;4.78;2.40;;;;;;;26.41;48.21;98874.56;5170205;27;20042;-63
